Time;durP1;ratioP1;P1;durP2;ratioP2;P2;SDS_P1;SDS_P2;PMS_P1;PMS_P2;Temp;Humidity;BMP_temperature;BMP_pressure;BME280_temperature;BME280_humidity;BME280_pressure;Samples;Min_cycle;Max_cycle;Signal;HPM_P1;HPM_P2
2022/04/08 00:00:05;;;;;;;9.30;5.33;;;;;;;2.61;84.68;94087.98;1785918;80;20983;-65
2022/04/08 00:02:41;;;;;;;6.93;5.03;;;;;;;2.69;85.22;94087.88;1786069;80;21066;-65
2022/04/08 00:05:08;;;;;;;7.57;4.80;;;;;;;2.66;84.40;94078.81;1785798;80;21037;-65
2022/04/08 00:07:35;;;;;;;7.03;5.07;;;;;;;2.69;84.50;94086.13;1785880;80;21007;-65
2022/04/08 00:10:06;;;;;;;7.60;5.00;;;;;;;2.66;84.20;94086.17;1785655;80;21050;-65
2022/04/08 00:12:33;;;;;;;4.97;3.70;;;;;;;2.63;84.05;94093.18;1786096;80;21022;-64
2022/04/08 00:15:01;;;;;;;5.40;4.47;;;;;;;2.54;84.21;94096.30;1785643;80;21031;-65
2022/04/08 00:17:27;;;;;;;8.67;4.50;;;;;;;2.48;85.05;94093.78;1785990;80;21015;-65
2022/04/08 00:19:54;;;;;;;8.73;4.83;;;;;;;2.48;85.37;94096.38;1786149;80;21485;-65
2022/04/08 00:22:22;;;;;;;6.70;5.00;;;;;;;2.51;85.39;94101.55;1785977;80;21402;-65
2022/04/08 00:24:48;;;;;;;7.33;5.33;;;;;;;2.52;85.28;94091.57;1785966;80;21031;-64
2022/04/08 00:27:15;;;;;;;8.03;5.90;;;;;;;2.51;85.34;94085.06;1786223;80;21465;-65
2022/04/08 00:29:41;;;;;;;6.40;4.67;;;;;;;2.52;85.15;94086.36;1785957;80;21085;-65
2022/04/08 00:32:09;;;;;;;7.27;5.47;;;;;;;2.53;85.12;94095.03;1786054;80;21489;-65
2022/04/08 00:34:36;;;;;;;6.63;5.10;;;;;;;2.49;85.33;94092.88;1785869;80;21484;-65
2022/04/08 00:37:03;;;;;;;5.23;4.73;;;;;;;2.49;85.55;94091.58;1786135;80;21042;-65
2022/04/08 00:39:30;;;;;;;5.87;4.63;;;;;;;2.51;85.55;94095.48;1785878;80;21027;-64
2022/04/08 00:42:01;;;;;;;7.17;5.57;;;;;;;2.47;85.25;94090.77;1784470;80;20980;-65
2022/04/08 00:44:29;;;;;;;5.63;4.80;;;;;;;2.44;85.25;94089.92;1785807;80;21504;-65
2022/04/08 00:46:56;;;;;;;7.13;6.37;;;;;;;2.45;85.11;94091.22;1786185;80;21058;-65
2022/04/08 00:49:22;;;;;;;7.50;5.57;;;;;;;2.46;85.89;94098.58;1785848;80;21535;-65
2022/04/08 00:51:50;;;;;;;6.93;5.07;;;;;;;2.51;85.75;94096.78;1786083;80;21539;-64
2022/04/08 00:54:19;;;;;;;7.93;5.73;;;;;;;2.57;85.89;94091.48;1785747;80;20993;-65
2022/04/08 00:56:46;;;;;;;7.63;5.27;;;;;;;2.65;86.09;94099.23;1755476;80;21019;-65
2022/04/08 00:59:13;;;;;;;8.50;5.70;;;;;;;2.78;86.13;94092.53;1786272;80;21046;-65
2022/04/08 01:01:39;;;;;;;9.13;5.87;;;;;;;2.89;86.49;94085.87;1786262;80;21038;-65
2022/04/08 01:04:07;;;;;;;7.90;5.90;;;;;;;2.98;86.44;94078.39;1786114;80;21002;-65
2022/04/08 01:06:34;;;;;;;7.37;5.03;;;;;;;3.04;86.13;94076.55;1785961;80;21019;-65
2022/04/08 01:09:01;;;;;;;7.17;5.83;;;;;;;3.10;85.91;94067.80;1755540;80;21023;-64
2022/04/08 01:11:27;;;;;;;8.97;6.60;;;;;;;3.13;85.78;94069.50;1785969;80;21042;-65
2022/04/08 01:13:54;;;;;;;8.97;6.70;;;;;;;3.16;85.93;94062.48;1786243;80;21003;-65
2022/04/08 01:16:21;;;;;;;9.80;6.53;;;;;;;3.28;86.36;94055.38;1785817;80;21019;-65
2022/04/08 01:18:48;;;;;;;11.17;7.17;;;;;;;3.42;86.39;94063.83;1785971;80;21448;-65
2022/04/08 01:21:14;;;;;;;8.93;7.00;;;;;;;3.50;86.15;94067.61;1786180;80;21015;-65
2022/04/08 01:23:45;;;;;;;9.27;7.27;;;;;;;3.50;85.62;94049.36;1755388;80;21456;-65
2022/04/08 01:26:12;;;;;;;10.67;7.70;;;;;;;3.54;85.45;94049.74;1786008;80;21027;-65
2022/04/08 01:28:39;;;;;;;9.83;7.60;;;;;;;3.58;85.50;94054.00;1786094;80;21022;-65
2022/04/08 01:31:05;;;;;;;9.90;7.87;;;;;;;3.57;85.23;94060.12;1785871;80;21019;-65
2022/04/08 01:33:31;;;;;;;12.77;9.13;;;;;;;3.62;85.93;94061.75;1786210;80;21026;-65
2022/04/08 01:35:58;;;;;;;14.20;9.63;;;;;;;3.73;86.73;94057.69;1785737;80;21118;-65
2022/04/08 01:38:25;;;;;;;17.27;10.03;;;;;;;3.80;86.56;94060.58;1786055;80;21495;-65
2022/04/08 01:40:51;;;;;;;12.87;8.87;;;;;;;3.94;86.78;94055.59;1785551;80;20980;-66
2022/04/08 01:43:18;;;;;;;15.00;9.50;;;;;;;3.98;86.28;94058.13;1789396;80;21003;-65
2022/04/08 01:45:44;;;;;;;13.53;8.53;;;;;;;3.96;85.82;94062.50;1789180;80;21532;-65
2022/04/08 01:48:11;;;;;;;12.07;8.70;;;;;;;3.97;85.88;94064.66;1789380;80;20991;-65
2022/04/08 01:50:38;;;;;;;48.63;21.63;;;;;;;3.89;85.64;94063.49;1789016;80;21062;-65
2022/04/08 01:53:04;;;;;;;147.17;56.53;;;;;;;3.86;85.59;94056.58;1788924;80;21022;-65
2022/04/08 01:55:32;;;;;;;52.10;26.20;;;;;;;3.86;85.77;94055.72;1789315;80;21043;-65
2022/04/08 01:57:58;;;;;;;13.50;9.97;;;;;;;3.86;85.83;94059.64;1789204;80;21022;-65
2022/04/08 02:00:25;;;;;;;14.40;9.07;;;;;;;3.89;85.93;94056.97;1789527;80;21007;-65
2022/04/08 02:02:52;;;;;;;35.23;18.33;;;;;;;3.95;86.22;94058.60;1789257;80;21014;-65
2022/04/08 02:05:18;;;;;;;23.47;14.30;;;;;;;3.89;86.13;94052.60;1789259;80;21038;-65
2022/04/08 02:07:45;;;;;;;19.33;11.73;;;;;;;3.76;85.59;94056.77;1789252;80;21437;-65
2022/04/08 02:10:12;;;;;;;31.53;17.17;;;;;;;3.68;85.64;94058.20;1789477;80;21003;-65
2022/04/08 02:12:39;;;;;;;16.63;11.70;;;;;;;3.68;85.83;94054.30;1789253;80;21002;-65
2022/04/08 02:15:07;;;;;;;42.67;22.13;;;;;;;3.66;85.53;94055.61;1789357;80;20999;-65
2022/04/08 02:17:34;;;;;;;165.77;66.90;;;;;;;3.59;86.61;94047.47;1789378;80;21484;-65
2022/04/08 02:20:00;;;;;;;107.83;48.87;;;;;;;3.60;86.82;94047.02;1789237;80;21018;-65
2022/04/08 02:22:29;;;;;;;88.87;43.67;;;;;;;3.63;86.84;94038.72;1789364;80;20999;-65
2022/04/08 02:24:56;;;;;;;53.67;26.57;;;;;;;3.70;86.86;94047.28;1789275;80;20982;-65
2022/04/08 02:27:23;;;;;;;78.53;39.67;;;;;;;3.74;86.77;94041.59;1789118;80;21058;-65
2022/04/08 02:29:50;;;;;;;58.17;29.60;;;;;;;3.78;87.01;94049.75;1789609;80;20995;-65
2022/04/08 02:32:17;;;;;;;43.50;22.70;;;;;;;3.81;86.79;94038.84;1789407;80;21082;-65
2022/04/08 02:34:44;;;;;;;44.83;23.90;;;;;;;3.77;87.36;94037.61;1789106;80;21034;-65
2022/04/08 02:37:10;;;;;;;38.77;19.43;;;;;;;3.82;87.07;94046.22;1789665;80;20987;-65
2022/04/08 02:39:37;;;;;;;37.20;21.20;;;;;;;3.79;86.38;94048.44;1789233;80;21133;-65
2022/04/08 02:42:05;;;;;;;43.20;20.73;;;;;;;3.81;86.86;94050.58;1789297;80;20987;-65
2022/04/08 02:44:31;;;;;;;44.33;21.63;;;;;;;3.92;87.34;94049.08;1789319;80;21006;-65
2022/04/08 02:46:58;;;;;;;31.97;16.27;;;;;;;3.94;86.63;94052.53;1789425;80;21476;-65
2022/04/08 02:49:25;;;;;;;37.23;18.07;;;;;;;4.00;86.63;94056.31;1789038;80;20971;-65
2022/04/08 02:51:52;;;;;;;34.80;17.57;;;;;;;3.98;86.27;94065.06;1789228;80;20991;-64
2022/04/08 02:54:18;;;;;;;30.40;16.57;;;;;;;3.98;85.96;94063.76;1789366;80;21457;-65
2022/04/08 02:56:45;;;;;;;18.20;10.20;;;;;;;3.92;85.86;94065.19;1788984;80;20975;-65
2022/04/08 02:59:12;;;;;;;21.23;12.03;;;;;;;3.87;85.89;94065.27;1789201;80;21011;-65
2022/04/08 03:01:38;;;;;;;16.03;9.67;;;;;;;3.88;86.62;94071.77;1789092;80;21066;-65
2022/04/08 03:04:06;;;;;;;15.73;9.97;;;;;;;3.95;86.88;94087.30;1788954;80;21034;-65
2022/04/08 03:06:35;;;;;;;18.93;12.57;;;;;;;3.90;86.46;94097.36;1789386;80;20990;-65
2022/04/08 03:09:04;;;;;;;17.50;12.27;;;;;;;3.86;86.21;94110.06;1789021;80;21057;-65
2022/04/08 03:11:31;;;;;;;13.80;10.63;;;;;;;3.80;86.19;94104.93;1789300;80;21549;-64
2022/04/08 03:14:02;;;;;;;21.30;13.90;;;;;;;3.76;86.67;94103.28;1789751;80;21019;-65
2022/04/08 03:16:29;;;;;;;78.50;35.60;;;;;;;3.78;86.92;94094.99;1789242;80;20967;-65
2022/04/08 03:18:56;;;;;;;40.47;21.67;;;;;;;3.74;86.99;94105.49;1789483;80;21499;-65
2022/04/08 03:21:22;;;;;;;38.23;21.27;;;;;;;3.77;87.05;94096.31;1789539;80;21022;-65
2022/04/08 03:23:49;;;;;;;33.40;19.20;;;;;;;3.79;87.22;94096.70;1789419;80;20971;-65
2022/04/08 03:26:16;;;;;;;27.83;16.60;;;;;;;3.86;87.35;94097.02;1788894;80;21026;-65
2022/04/08 03:28:43;;;;;;;19.10;12.37;;;;;;;3.92;87.81;94106.94;1789472;80;21006;-65
2022/04/08 03:31:11;;;;;;;12.63;8.30;;;;;;;3.96;88.10;94106.86;1789308;80;21034;-65
2022/04/08 03:33:41;;;;;;;7.70;6.07;;;;;;;4.07;88.23;94113.19;1789417;80;21018;-65
2022/04/08 03:36:08;;;;;;;12.70;9.47;;;;;;;4.45;89.10;94104.66;1789606;80;21011;-64
2022/04/08 03:38:35;;;;;;;10.57;7.77;;;;;;;4.86;88.85;94113.88;1789004;80;21027;-65
2022/04/08 03:41:02;;;;;;;5.23;4.10;;;;;;;5.06;87.98;94109.54;1789238;80;21002;-65
2022/04/08 03:43:28;;;;;;;7.03;3.23;;;;;;;5.19;87.51;94110.98;1789532;80;21347;-65
2022/04/08 03:45:55;;;;;;;4.87;3.10;;;;;;;5.77;87.78;94110.11;1789302;80;21002;-64
2022/04/08 03:48:21;;;;;;;4.67;3.13;;;;;;;6.24;85.95;94107.66;1789431;80;21011;-65
2022/04/08 03:50:48;;;;;;;5.53;3.03;;;;;;;6.82;84.42;94110.48;1789318;80;21042;-65
2022/04/08 03:53:14;;;;;;;4.17;2.70;;;;;;;7.12;82.72;94104.81;1788952;80;21046;-68
2022/04/08 03:55:41;;;;;;;7.03;4.60;;;;;;;7.39;82.33;94104.06;1789411;80;21030;-66
2022/04/08 03:58:11;;;;;;;5.70;2.53;;;;;;;7.58;79.50;94093.38;1788984;80;21049;-63
2022/04/08 04:00:38;;;;;;;5.57;3.27;;;;;;;7.78;79.46;94087.05;1789696;80;21018;-65
2022/04/08 04:03:06;;;;;;;8.23;4.00;;;;;;;7.98;77.60;94071.96;1789406;80;21556;-64
2022/04/08 04:05:35;;;;;;;6.57;3.17;;;;;;;8.18;77.27;94062.10;1789402;80;20987;-64
2022/04/08 04:08:03;;;;;;;7.07;4.47;;;;;;;8.31;74.90;94063.00;1789433;80;21484;-64
2022/04/08 04:10:30;;;;;;;5.00;3.27;;;;;;;8.37;75.48;94073.32;1789208;80;20995;-64
2022/04/08 04:12:56;;;;;;;5.50;3.73;;;;;;;8.45;74.39;94068.22;1788903;80;21018;-65
2022/04/08 04:15:22;;;;;;;3.63;3.23;;;;;;;8.47;75.02;94086.58;1789379;80;21043;-64
2022/04/08 04:17:49;;;;;;;6.37;3.73;;;;;;;8.47;73.44;94089.20;1789229;80;21102;-64
2022/04/08 04:20:16;;;;;;;5.53;3.17;;;;;;;8.54;72.64;94081.95;1789257;80;21535;-65
2022/04/08 04:22:42;;;;;;;6.07;3.17;;;;;;;8.61;71.97;94084.30;1789054;80;21055;-65
2022/04/08 04:25:09;;;;;;;4.63;2.80;;;;;;;8.62;71.91;94088.67;1789194;80;20983;-64
2022/04/08 04:27:36;;;;;;;5.80;3.50;;;;;;;8.69;72.30;94085.81;1788956;80;21039;-65
2022/04/08 04:30:04;;;;;;;3.23;2.73;;;;;;;8.74;72.64;94086.04;1789580;80;21018;-65
2022/04/08 04:32:30;;;;;;;9.73;7.33;;;;;;;8.70;71.88;94104.64;1789417;80;21037;-64
2022/04/08 04:34:57;;;;;;;19.53;12.10;;;;;;;8.62;72.73;94108.39;1789479;80;20963;-64
2022/04/08 04:37:23;;;;;;;7.97;4.70;;;;;;;8.58;73.46;94114.66;1789450;80;21107;-64
2022/04/08 04:39:50;;;;;;;7.83;4.00;;;;;;;8.50;74.19;94115.38;1789467;80;21480;-65
2022/04/08 04:42:16;;;;;;;3.33;2.50;;;;;;;8.51;74.46;94110.52;1789274;80;21006;-64
2022/04/08 04:44:42;;;;;;;3.30;2.40;;;;;;;8.56;74.50;94112.52;1789355;80;21525;-65
2022/04/08 04:47:09;;;;;;;2.70;2.37;;;;;;;8.53;74.74;94094.70;1788895;80;21038;-65
2022/04/08 04:49:36;;;;;;;3.07;2.17;;;;;;;8.49;74.78;94097.88;1789594;80;20983;-65
2022/04/08 04:52:03;;;;;;;7.43;5.53;;;;;;;8.57;74.33;94095.86;1789432;80;20975;-64
2022/04/08 04:54:30;;;;;;;12.20;9.60;;;;;;;8.66;74.03;94088.09;1789200;80;21062;-65
2022/04/08 04:56:56;;;;;;;5.03;4.30;;;;;;;8.74;74.12;94094.39;1788963;80;21074;-64
2022/04/08 04:59:23;;;;;;;8.73;7.13;;;;;;;8.83;72.63;94090.13;1789325;80;21007;-66
2022/04/08 05:01:49;;;;;;;8.90;8.00;;;;;;;8.95;73.37;94092.32;1789097;80;21090;-66
2022/04/08 05:04:16;;;;;;;9.57;6.70;;;;;;;9.01;73.44;94093.86;1787570;80;21077;-67
2022/04/08 05:06:43;;;;;;;16.87;14.53;;;;;;;9.04;73.42;94084.08;1787678;80;21168;-68
2022/04/08 05:09:09;;;;;;;20.30;17.50;;;;;;;9.07;73.47;94098.45;1787427;80;21227;-66
2022/04/08 05:11:36;;;;;;;11.87;8.53;;;;;;;9.14;73.27;94102.16;1788644;80;21011;-68
2022/04/08 05:14:02;;;;;;;6.63;5.53;;;;;;;9.17;73.25;94098.09;1788160;80;21059;-63
2022/04/08 05:16:29;;;;;;;6.40;5.10;;;;;;;9.22;71.54;94110.63;1788806;80;21089;-63
2022/04/08 05:18:56;;;;;;;7.63;3.47;;;;;;;9.36;69.90;94125.45;1788990;80;21014;-65
2022/04/08 05:21:23;;;;;;;11.30;7.20;;;;;;;9.52;69.70;94141.52;1787805;80;20991;-66
2022/04/08 05:23:50;;;;;;;7.00;3.70;;;;;;;9.58;69.27;94143.09;1791731;80;21129;-66
2022/04/08 05:26:16;;;;;;;6.53;4.17;;;;;;;9.63;68.71;94142.45;1795033;80;21029;-65
2022/04/08 05:28:43;;;;;;;6.17;3.43;;;;;;;9.67;68.01;94141.40;1795223;80;21080;-65
2022/04/08 05:31:10;;;;;;;3.50;3.10;;;;;;;9.69;68.66;94152.28;1795476;80;21021;-66
2022/04/08 05:33:36;;;;;;;5.30;4.00;;;;;;;9.74;68.31;94161.33;1794822;80;21003;-66
2022/04/08 05:36:04;;;;;;;6.97;5.00;;;;;;;9.83;66.99;94163.62;1795692;80;20988;-65
2022/04/08 05:38:30;;;;;;;35.80;17.77;;;;;;;9.90;67.42;94180.91;1795415;80;21061;-62
2022/04/08 05:40:57;;;;;;;5.63;4.03;;;;;;;9.97;67.69;94194.69;1728660;83;21054;-64
2022/04/08 05:43:24;;;;;;;22.40;20.17;;;;;;;10.00;66.13;94206.41;1728177;81;21042;-67
2022/04/08 05:45:50;;;;;;;7.10;4.50;;;;;;;10.09;67.62;94218.39;1742622;82;21034;-66
2022/04/08 05:48:17;;;;;;;8.37;6.23;;;;;;;10.16;67.13;94222.05;1724845;83;21116;-70
2022/04/08 05:50:43;;;;;;;14.63;12.60;;;;;;;10.26;66.44;94218.59;1724476;83;21631;-67
2022/04/08 05:53:10;;;;;;;5.13;4.20;;;;;;;10.38;67.37;94234.41;1725513;82;21065;-68
2022/04/08 05:55:36;;;;;;;6.75;4.70;;;;;;;10.47;65.46;94243.28;1726027;83;20975;-69
2022/04/08 05:58:03;;;;;;;11.10;9.35;;;;;;;10.53;65.40;94250.08;1725876;83;21027;-65
2022/04/08 06:00:33;;;;;;;9.45;7.03;;;;;;;10.56;64.76;94260.53;1733892;82;21026;-69
2022/04/08 06:02:58;;;;;;;8.95;6.85;;;;;;;10.56;64.92;94269.30;1744712;82;21042;-66
2022/04/08 06:05:25;;;;;;;9.83;6.33;;;;;;;10.50;65.26;94279.22;1752669;82;21085;-66
2022/04/08 06:07:54;;;;;;;8.60;6.30;;;;;;;10.46;65.32;94296.95;1753584;81;21010;-65
2022/04/08 06:10:23;;;;;;;8.03;5.47;;;;;;;10.40;65.34;94317.80;1754099;82;21015;-66
2022/04/08 06:12:53;;;;;;;10.03;7.72;;;;;;;10.28;65.03;94325.32;1753302;81;21077;-65
2022/04/08 06:15:20;;;;;;;10.37;7.37;;;;;;;10.21;65.96;94341.81;1753470;81;21543;-65
2022/04/08 06:17:47;;;;;;;15.13;12.68;;;;;;;10.14;66.01;94322.72;1753460;82;20995;-64
2022/04/08 06:20:20;;;;;;;8.87;7.00;;;;;;;10.11;66.04;94315.40;1753455;82;21014;-65
2022/04/08 06:22:47;;;;;;;7.87;7.03;;;;;;;10.10;65.67;94325.05;1753036;82;21011;-67
2022/04/08 06:25:16;;;;;;;11.23;8.23;;;;;;;10.15;65.83;94338.95;1752098;81;21082;-66
2022/04/08 06:27:47;;;;;;;7.08;5.47;;;;;;;10.16;65.54;94351.20;1753410;82;21105;-65
2022/04/08 06:30:15;;;;;;;14.27;10.60;;;;;;;10.03;65.92;94336.77;1753674;82;21047;-65
2022/04/08 06:32:43;;;;;;;12.27;10.77;;;;;;;10.01;66.15;94345.18;1753296;81;21078;-65
2022/04/08 06:35:10;;;;;;;11.73;8.83;;;;;;;10.01;66.31;94354.86;1753700;81;21481;-65
2022/04/08 06:37:37;;;;;;;11.97;8.80;;;;;;;10.07;67.00;94353.31;1753240;81;21042;-66
2022/04/08 06:40:10;;;;;;;15.10;11.05;;;;;;;10.17;66.38;94348.95;1743363;82;20971;-67
2022/04/08 06:42:38;;;;;;;13.58;9.90;;;;;;;10.32;65.38;94349.34;1740939;80;21113;-66
2022/04/08 06:45:07;;;;;;;10.72;7.83;;;;;;;10.49;65.92;94345.61;1730871;81;21112;-65
2022/04/08 06:47:33;;;;;;;12.82;9.20;;;;;;;10.57;64.73;94339.58;1738910;81;21011;-65
2022/04/08 06:50:01;;;;;;;14.63;11.88;;;;;;;10.63;64.87;94342.43;1732013;81;21053;-65
2022/04/08 06:52:27;;;;;;;14.47;11.75;;;;;;;10.75;64.54;94349.02;1708694;84;21062;-65
2022/04/08 06:54:54;;;;;;;13.35;11.95;;;;;;;10.94;63.18;94346.06;1708798;84;21049;-64
2022/04/08 06:57:20;;;;;;;12.50;10.45;;;;;;;11.07;63.30;94363.58;1708649;84;21021;-66
2022/04/08 06:59:46;;;;;;;18.07;10.93;;;;;;;11.18;62.74;94366.63;1709314;84;21539;-65
2022/04/08 07:02:13;;;;;;;12.75;10.38;;;;;;;11.30;62.42;94377.16;1709066;84;21498;-66
2022/04/08 07:04:40;;;;;;;11.40;9.28;;;;;;;11.39;62.70;94382.52;1708650;84;21064;-65
2022/04/08 07:07:06;;;;;;;12.10;10.13;;;;;;;11.34;61.85;94392.41;1708370;84;21097;-65
2022/04/08 07:09:34;;;;;;;10.48;8.83;;;;;;;11.29;61.81;94397.02;1708498;84;21064;-65
2022/04/08 07:12:02;;;;;;;12.53;8.98;;;;;;;11.20;61.69;94411.00;1709087;84;21029;-67
2022/04/08 07:14:29;;;;;;;11.12;7.72;;;;;;;11.03;62.02;94410.34;1708522;84;21071;-66
2022/04/08 07:16:56;;;;;;;11.10;8.55;;;;;;;10.99;62.13;94430.34;1709332;84;21014;-65
2022/04/08 07:19:23;;;;;;;10.28;8.03;;;;;;;10.96;62.95;94435.28;1709183;84;21089;-66
2022/04/08 07:21:49;;;;;;;8.88;7.53;;;;;;;10.88;62.43;94443.07;1709137;84;21018;-69
2022/04/08 07:24:16;;;;;;;13.53;9.73;;;;;;;10.85;62.92;94457.23;1709080;84;21457;-67
2022/04/08 07:26:42;;;;;;;10.40;8.28;;;;;;;10.81;62.74;94458.30;1678105;84;22211;-68
2022/04/08 07:29:09;;;;;;;9.63;7.17;;;;;;;10.71;63.54;94451.61;1708677;84;21077;-68
2022/04/08 07:31:36;;;;;;;10.88;7.75;;;;;;;10.69;63.58;94466.66;1708981;84;21077;-66
2022/04/08 07:34:03;;;;;;;8.53;6.33;;;;;;;10.63;63.76;94476.10;1709222;84;21002;-68
2022/04/08 07:36:29;;;;;;;7.60;6.55;;;;;;;10.44;64.44;94468.02;1708413;84;21054;-65
2022/04/08 07:38:56;;;;;;;8.45;7.05;;;;;;;10.40;64.31;94469.89;1708391;84;21036;-66
2022/04/08 07:41:23;;;;;;;9.03;7.95;;;;;;;10.40;64.79;94461.97;1745744;81;21449;-65
2022/04/08 07:43:50;;;;;;;11.35;7.92;;;;;;;10.37;64.63;94472.64;1764965;80;21153;-66
2022/04/08 07:46:17;;;;;;;9.90;8.03;;;;;;;10.39;64.72;94477.41;1777657;80;21073;-67
2022/04/08 07:48:43;;;;;;;6.97;5.92;;;;;;;10.37;64.47;94467.37;1767475;80;21106;-69
2022/04/08 07:51:10;;;;;;;8.30;6.72;;;;;;;10.39;64.23;94457.16;1761818;81;21109;-65
2022/04/08 07:53:37;;;;;;;7.42;6.65;;;;;;;10.39;64.21;94467.71;1761614;81;21026;-68
2022/04/08 07:56:04;;;;;;;9.15;7.72;;;;;;;10.38;64.03;94473.91;1760683;81;21122;-66
2022/04/08 07:58:31;;;;;;;7.15;6.45;;;;;;;10.36;64.23;94487.61;1760989;81;21007;-67
2022/04/08 08:00:58;;;;;;;9.30;6.25;;;;;;;10.35;64.15;94499.05;1762046;81;21050;-71
2022/04/08 08:03:25;;;;;;;6.78;5.65;;;;;;;10.34;64.35;94498.66;1762250;81;21038;-66
2022/04/08 08:05:53;;;;;;;7.80;6.03;;;;;;;10.34;63.72;94485.47;1760861;81;21555;-68
2022/04/08 08:08:20;;;;;;;8.68;5.65;;;;;;;10.35;64.03;94479.73;1761122;81;21552;-66
2022/04/08 08:10:47;;;;;;;7.75;5.78;;;;;;;10.38;63.32;94475.66;1760630;81;22370;-65
2022/04/08 08:13:13;;;;;;;7.58;6.08;;;;;;;10.47;63.84;94478.45;1760475;81;21058;-65
2022/04/08 08:15:41;;;;;;;16.55;8.33;;;;;;;10.52;64.19;94485.73;1760797;81;21098;-64
2022/04/08 08:18:08;;;;;;;12.35;8.85;;;;;;;10.55;63.86;94493.53;1761436;81;21030;-69
2022/04/08 08:20:35;;;;;;;11.25;7.33;;;;;;;10.57;64.06;94495.66;1761671;81;21011;-70
2022/04/08 08:23:01;;;;;;;9.88;5.50;;;;;;;10.57;63.77;94522.89;1761755;81;21560;-66
2022/04/08 08:25:28;;;;;;;6.53;5.33;;;;;;;10.59;63.18;94527.66;1760270;81;21134;-69
2022/04/08 08:28:01;;;;;;;7.85;5.58;;;;;;;10.62;63.64;94535.92;1761606;81;21453;-72
2022/04/08 08:30:30;;;;;;;6.65;4.87;;;;;;;10.63;63.73;94536.78;1761414;81;21130;-72
2022/04/08 08:32:58;;;;;;;8.63;5.33;;;;;;;10.67;64.05;94535.77;1761357;81;21504;-75
2022/04/08 08:35:26;;;;;;;8.00;4.80;;;;;;;10.64;61.73;94540.69;1762088;81;20999;-71
2022/04/08 08:37:53;;;;;;;4.42;3.50;;;;;;;10.67;62.56;94548.48;1760932;81;21115;-71
2022/04/08 08:40:20;;;;;;;5.25;3.77;;;;;;;10.69;60.60;94554.58;1760127;81;21074;-71
2022/04/08 08:42:48;;;;;;;5.50;4.10;;;;;;;10.68;59.75;94551.98;1761542;81;21073;-70
2022/04/08 08:45:17;;;;;;;4.92;3.95;;;;;;;10.65;59.69;94558.23;1769802;81;21014;-72
2022/04/08 08:47:52;;;;;;;5.62;3.52;;;;;;;10.68;59.64;94561.21;1770231;81;21041;-70
2022/04/08 08:50:18;;;;;;;4.75;3.80;;;;;;;10.70;60.10;94564.20;1770272;81;21089;-72
2022/04/08 08:52:51;;;;;;;4.42;3.58;;;;;;;10.72;58.85;94565.48;1770486;81;20971;-70
2022/04/08 08:55:18;;;;;;;7.00;4.67;;;;;;;10.76;58.42;94568.39;1769535;81;21504;-70
2022/04/08 08:57:47;;;;;;;5.05;4.05;;;;;;;10.77;58.13;94564.39;1769135;81;21160;-70
2022/04/08 09:00:16;;;;;;;4.70;2.92;;;;;;;10.85;59.40;94571.17;1766332;81;21042;-70
2022/04/08 09:02:44;;;;;;;3.52;2.90;;;;;;;10.94;57.76;94581.41;1772140;81;21444;-70
2022/04/08 09:05:18;;;;;;;3.20;2.90;;;;;;;10.97;56.13;94576.02;1772937;81;21010;-74
2022/04/08 09:07:59;;;;;;;6.30;3.10;;;;;;;11.03;54.62;94570.50;1771440;81;21042;-73
2022/04/08 09:10:35;;;;;;;3.58;2.60;;;;;;;11.13;55.28;94576.30;1768361;81;21068;-73
2022/04/08 09:13:04;;;;;;;3.72;2.90;;;;;;;11.28;53.20;94578.37;1775823;81;20970;-73
2022/04/08 09:15:34;;;;;;;4.95;2.58;;;;;;;11.41;52.38;94583.58;1775708;81;21068;-73
2022/04/08 09:18:15;;;;;;;2.40;2.00;;;;;;;11.59;53.11;94589.08;1775792;81;21050;-73
2022/04/08 09:20:50;;;;;;;3.65;2.42;;;;;;;11.73;50.89;94593.38;1745667;82;20982;-73
2022/04/08 09:23:19;;;;;;;2.95;2.60;;;;;;;11.86;51.56;94595.97;1776198;81;21091;-72
2022/04/08 09:25:51;;;;;;;5.87;3.47;;;;;;;12.04;52.16;94602.77;1766116;81;21049;-72
2022/04/08 09:28:18;;;;;;;6.37;3.42;;;;;;;12.27;53.23;94596.10;1743621;82;21032;-73
2022/04/08 09:30:52;;;;;;;5.80;3.10;;;;;;;12.46;51.73;94608.56;1775667;81;21060;-73
2022/04/08 09:33:21;;;;;;;2.92;2.62;;;;;;;12.51;49.80;94618.48;1767209;81;21659;-73
2022/04/08 09:35:49;;;;;;;3.00;2.45;;;;;;;12.40;49.13;94613.65;1745294;82;20993;-73
2022/04/08 09:38:22;;;;;;;2.72;2.10;;;;;;;12.40;49.63;94622.02;1776402;81;21048;-73
2022/04/08 09:40:50;;;;;;;3.70;2.00;;;;;;;12.41;50.09;94633.02;1767023;81;20988;-73
2022/04/08 09:43:17;;;;;;;3.67;2.75;;;;;;;12.42;50.18;94631.61;1795236;80;21070;-73
2022/04/08 09:45:45;;;;;;;5.70;3.10;;;;;;;12.43;50.05;94636.47;1792635;80;21010;-73
2022/04/08 09:48:12;;;;;;;3.00;2.52;;;;;;;12.53;51.25;94636.02;1792701;80;21057;-73
2022/04/08 09:50:40;;;;;;;3.58;2.22;;;;;;;12.67;50.02;94631.45;1792544;80;21519;-73
2022/04/08 09:53:09;;;;;;;3.83;2.08;;;;;;;12.72;49.07;94633.45;1792515;80;20994;-72
2022/04/08 09:55:38;;;;;;;3.60;2.30;;;;;;;12.61;48.56;94617.17;1791909;80;21037;-72
2022/04/08 09:58:06;;;;;;;3.33;2.30;;;;;;;12.69;49.95;94615.52;1791751;80;22204;-73
2022/04/08 10:00:33;;;;;;;4.67;2.55;;;;;;;12.80;48.26;94614.63;1791201;80;21133;-72
2022/04/08 10:03:00;;;;;;;3.55;2.10;;;;;;;12.99;48.19;94617.31;1791655;80;21129;-73
2022/04/08 10:05:27;;;;;;;2.58;2.17;;;;;;;13.16;48.34;94616.12;1791979;80;21073;-73
2022/04/08 10:07:56;;;;;;;3.40;2.60;;;;;;;13.19;48.01;94621.27;1792085;80;21618;-73
2022/04/08 10:10:48;;;;;;;3.40;1.95;;;;;;;13.48;48.10;94619.59;1791479;80;21069;-72
2022/04/08 10:13:30;;;;;;;3.10;2.08;;;;;;;13.48;47.21;94623.57;1761144;80;21081;-72
2022/04/08 10:16:22;;;;;;;3.35;2.00;;;;;;;13.62;47.94;94625.14;1792281;80;20986;-73
2022/04/08 10:18:50;;;;;;;1.95;1.62;;;;;;;14.01;47.35;94627.73;1791564;80;21075;-72
2022/04/08 10:21:17;;;;;;;4.10;1.90;;;;;;;14.28;44.74;94614.05;1795410;80;20988;-72
2022/04/08 10:23:51;;;;;;;2.40;1.80;;;;;;;14.32;45.46;94610.80;1764377;81;21038;-72
2022/04/08 10:26:23;;;;;;;3.22;2.35;;;;;;;14.57;44.86;94612.67;1792516;80;20970;-74
2022/04/08 10:28:55;;;;;;;4.00;1.90;;;;;;;14.59;44.85;94605.49;1792616;80;21048;-74
2022/04/08 10:31:26;;;;;;;6.03;2.10;;;;;;;14.42;43.45;94605.44;1792822;80;20994;-74
2022/04/08 10:33:57;;;;;;;3.58;1.60;;;;;;;14.17;44.36;94610.61;1792709;80;21475;-74
2022/04/08 10:36:41;;;;;;;6.90;1.75;;;;;;;14.05;45.38;94601.91;1792634;80;21010;-74
2022/04/08 10:39:22;;;;;;;4.83;2.00;;;;;;;13.99;45.24;94608.84;1777237;80;28562;-74
2022/04/08 10:42:03;;;;;;;2.22;1.75;;;;;;;14.51;45.67;94593.02;1792451;80;21026;-74
2022/04/08 10:44:41;;;;;;;7.12;3.92;;;;;;;14.51;45.67;94593.02;1791491;80;21046;-74
2022/04/08 10:47:14;;;;;;;1.75;1.57;;;;;;;14.84;43.89;94594.94;1790922;80;21014;-74
2022/04/08 10:49:52;;;;;;;;;;;;;;;14.81;42.78;94589.78;1793679;80;21038;-74
2022/04/08 10:52:25;;;;;;;2.47;1.60;;;;;;;14.80;43.00;94599.56;1777672;81;20101;-73
2022/04/08 10:55:07;;;;;;;4.50;1.80;;;;;;;14.75;42.91;94599.41;1777825;81;21019;-74
2022/04/08 10:57:42;;;;;;;3.20;1.50;;;;;;;14.69;43.04;94609.84;1777693;81;21051;-72
2022/04/08 11:00:17;;;;;;;1.70;1.40;;;;;;;14.67;42.91;94609.09;1777703;81;21025;-73
2022/04/08 11:05:26;;;;;;;1.87;1.45;;;;;;;15.23;43.06;94594.67;1802769;79;22973;-73
2022/04/08 11:07:53;;;;;;;1.50;1.30;;;;;;;15.61;43.18;94594.91;1763000;81;21476;-73
2022/04/08 11:10:22;;;;;;;2.30;1.67;;;;;;;15.87;41.73;94587.70;1729518;83;21033;-74
2022/04/08 11:12:51;;;;;;;1.83;1.20;;;;;;;16.06;42.33;94590.20;1729272;83;21042;-73
2022/04/08 11:15:20;;;;;;;2.05;1.30;;;;;;;16.26;39.88;94610.86;1729411;83;21030;-73
2022/04/08 11:17:48;;;;;;;2.22;1.40;;;;;;;15.85;38.78;94613.55;1729490;83;21041;-74
2022/04/08 11:20:18;;;;;;;2.12;1.15;;;;;;;16.35;39.51;94593.86;1729437;83;21057;-74
2022/04/08 11:22:53;;;;;;;1.87;1.35;;;;;;;16.73;38.04;94592.16;1729381;83;21038;-73
2022/04/08 11:25:30;;;;;;;3.27;1.52;;;;;;;17.09;37.77;94578.95;1729179;83;21093;-73
2022/04/08 11:28:09;;;;;;;1.40;1.30;;;;;;;17.48;37.85;94588.97;1729164;83;21041;-73
2022/04/08 11:30:38;;;;;;;2.30;1.62;;;;;;;18.03;39.30;94574.01;1729350;83;21018;-73
2022/04/08 11:33:18;;;;;;;1.75;1.65;;;;;;;18.35;35.47;94581.77;1729584;83;21022;-74
2022/04/08 11:35:47;;;;;;;2.22;1.90;;;;;;;18.56;36.56;94579.00;1729003;82;21018;-74
2022/04/08 11:38:16;;;;;;;2.42;1.98;;;;;;;18.96;37.19;94562.16;1729434;83;21019;-74
2022/04/08 11:40:43;;;;;;;2.52;1.50;;;;;;;19.46;34.77;94577.39;1729228;83;21021;-74